Mount Pleasant, MI

11:05 PM EDT on October 25, 2014 (GMT -0400)
Chippewa Township | Change Station
CLOSE
Current Station
Personal Weather Station
Location: Mt Pleasant, MI
Elevation: 755 ft
Nearby Weather Stations

Elev 755 ft 43.63 °N, 84.65 °W | Updated 3 seconds ago

Clear
Clear
51.4 °F
Feels Like 51.4 °F
N
5.0
Wind Variable Wind from WNW
Gusts 11.0 mph

Today
High -- | Low -- °F
--% Chance of Precip.
Yesterday
High -- | Low -- °F
Precip. -- in
8:05 AM 6:39 PM
Waxing Crescent, 5% visible
Pressure 29.82 in
Visibility 10.0 miles
Clouds Clear
Dew Point 10 °F
Humidity 19%
Rainfall -999.00 in
Snow Depth Not available.
UV 0 out of 12
Pollen 1.80 out of 12
Ozone Good
Flu Activity Sporadic
METAR KMOP 260258Z AUTO 28007KT 10SM CLR 11/01 A2982 RMK AO2 T01050014

More Conditions Fewer Conditions

Pressure 29.82 in
Visibility 10.0 miles
Clouds Clear
Dew Point 10 °F
Humidity 19%
Rainfall -999.00 in
Snow Depth Not available.
UV 0 out of 12
Pollen 1.80 out of 12
Ozone Good
Flu Activity Sporadic
METAR KMOP 260258Z AUTO 28007KT 10SM CLR 11/01 A2982 RMK AO2 T01050014

More Conditions Fewer Conditions

10-Day Weather Forecast

Almanac

Astronomy

Oct. 25, 2014 Rise Set
Actual Time 8:05 AM EDT 6:39 PM EDT
Civil Twilight 7:36 AM EDT 7:08 PM EDT
Nautical Twilight 7:02 AM EDT 7:42 PM EDT
Astronomical Twilight 6:29 AM EDT 8:15 PM EDT
Moon 9:45 AM EDT (10/25) 7:59 PM EDT (10/25)
Length of Visible Light 11h 32m
Length of Day
10h 34m
Tomorrow will be 2m 45s shorter.
Waxing Crescent, 5% of the Moon is Illuminated
Today
Waxing Crescent
Oct 30
First Quarter
Nov 6
Full
Nov 14
Last Quarter
Nov 22
New

Today's Extremes

State Highs State Lows

Community

WunderPhotos

Upload Photos

1,765,091 photos uploaded!

Nearby

Air Quality

  Air Quality AQ Index Pollutant
Yesterday Good
OZONE
Current Good
OZONE
Saturday Good
PM2.5
Sunday Good
PM2.5
Monday Moderate
PM2.5

Snow Depth

Station Depth Elevation
No new snow has been reported.

Earthquake Activity

City Distance Mag. Time & Date
No recent earthquake activity has been reported nearby.
Minimum magnitude displayed is 2.5.

Coastal Water Temperatures

Place Temperature
No Stations Reporting

Nearby Weather Stations